createdAt,value
2019-02-07T00:00:53.921Z,-10.60
2019-02-07T00:01:53.922Z,-10.58
2019-02-07T00:02:53.942Z,-10.55
2019-02-07T00:03:53.896Z,-10.58
2019-02-07T00:04:53.881Z,-10.58
2019-02-07T00:05:53.876Z,-10.54
2019-02-07T00:06:54.667Z,-10.58
2019-02-07T00:07:53.854Z,-10.64
2019-02-07T00:08:53.880Z,-10.61
2019-02-07T00:09:53.832Z,-10.65
2019-02-07T00:10:53.819Z,-10.65
2019-02-07T00:11:53.809Z,-10.62
2019-02-07T00:12:53.804Z,-10.65
2019-02-07T00:14:04.606Z,-10.61
2019-02-07T00:14:53.779Z,-10.61
2019-02-07T00:15:53.769Z,-10.61
2019-02-07T00:16:53.761Z,-10.57
2019-02-07T00:17:53.746Z,-10.62
2019-02-07T00:18:53.739Z,-10.64
2019-02-07T00:19:53.900Z,-10.60
2019-02-07T00:20:53.715Z,-10.57
2019-02-07T00:21:53.721Z,-10.62
2019-02-07T00:22:53.739Z,-10.50
2019-02-07T00:23:53.685Z,-10.52
2019-02-07T00:24:53.674Z,-10.57
2019-02-07T00:25:53.825Z,-10.50
2019-02-07T00:26:53.662Z,-10.62
2019-02-07T00:27:53.645Z,-10.54
2019-02-07T00:28:53.641Z,-10.54
2019-02-07T00:29:53.624Z,-10.50
2019-02-07T00:30:53.617Z,-10.61
2019-02-07T00:31:53.642Z,-10.58
2019-02-07T00:32:53.600Z,-10.58
2019-02-07T00:33:53.590Z,-10.43
2019-02-07T00:34:53.576Z,-10.47
2019-02-07T00:35:53.562Z,-10.41
2019-02-07T00:36:53.555Z,-10.47
2019-02-07T00:37:53.602Z,-10.28
2019-02-07T00:38:53.539Z,-10.44
2019-02-07T00:39:53.522Z,-10.44
2019-02-07T00:40:53.512Z,-10.40
2019-02-07T00:41:53.502Z,-10.36
2019-02-07T00:42:53.491Z,-10.36
2019-02-07T00:43:53.529Z,-10.34
2019-02-07T00:45:04.644Z,-10.33
2019-02-07T00:45:53.564Z,-10.33
2019-02-07T00:46:53.454Z,-10.37
2019-02-07T00:47:53.443Z,-10.28
2019-02-07T00:48:53.434Z,-10.25
2019-02-07T00:49:53.595Z,-10.30
2019-02-07T00:50:53.410Z,-10.33
2019-02-07T00:51:53.405Z,-10.33
2019-02-07T00:52:53.398Z,-10.30
2019-02-07T00:53:53.387Z,-10.23
2019-02-07T00:54:53.369Z,-10.23
2019-02-07T00:55:53.394Z,-10.12
2019-02-07T00:56:53.351Z,-10.13
2019-02-07T00:57:53.339Z,-10.18
2019-02-07T00:58:53.331Z,-10.15
2019-02-07T00:59:53.318Z,-10.28
2019-02-07T01:00:53.310Z,-10.15
2019-02-07T01:01:53.504Z,-10.19
2019-02-07T01:02:53.286Z,-10.12
2019-02-07T01:03:53.276Z,-10.08
2019-02-07T01:04:53.274Z,-10.04
2019-02-07T01:05:53.257Z,-10.02
2019-02-07T01:06:53.242Z,-9.92
2019-02-07T01:07:53.280Z,-9.95
2019-02-07T01:08:53.228Z,-9.87
2019-02-07T01:09:53.214Z,-9.81
2019-02-07T01:10:53.215Z,-9.76
2019-02-07T01:11:53.204Z,-9.81
2019-02-07T01:12:53.181Z,-9.76
2019-02-07T01:13:53.212Z,-9.76
2019-02-07T01:15:01.698Z,-9.84
2019-02-07T01:17:05.966Z,-9.65
2019-02-07T01:18:05.923Z,-9.66
2019-02-07T01:19:05.907Z,-9.62
2019-02-07T01:20:05.895Z,-9.58
2019-02-07T01:21:05.901Z,-9.58
2019-02-07T01:22:05.880Z,-9.63
2019-02-07T01:23:05.907Z,-9.44
2019-02-07T01:24:05.876Z,-9.45
2019-02-07T01:25:05.857Z,-9.58
2019-02-07T01:26:05.845Z,-9.45
2019-02-07T01:27:05.837Z,-9.44
2019-02-07T01:28:05.825Z,-9.39
2019-02-07T01:29:05.870Z,-9.47
2019-02-07T01:30:05.797Z,-9.33
2019-02-07T01:31:05.789Z,-9.28
2019-02-07T01:32:05.788Z,-9.26
2019-02-07T01:33:05.771Z,-9.22
2019-02-07T01:34:05.766Z,-9.36
2019-02-07T01:35:05.841Z,-9.36
2019-02-07T01:36:05.742Z,-9.29
2019-02-07T01:37:05.733Z,-9.25
2019-02-07T01:38:05.715Z,-9.20
2019-02-07T01:39:05.711Z,-9.23
2019-02-07T01:40:05.698Z,-9.22
2019-02-07T01:41:05.743Z,-9.20
2019-02-07T01:42:05.684Z,-9.20
2019-02-07T01:43:05.672Z,-9.18
2019-02-07T01:44:05.668Z,-9.25
2019-02-07T01:45:12.764Z,-9.20
2019-02-07T01:46:06.674Z,-9.15
2019-02-07T01:47:13.121Z,-9.18
2019-02-07T01:48:05.616Z,-9.20
2019-02-07T01:49:05.614Z,-9.20
2019-02-07T01:50:05.601Z,-9.15
2019-02-07T01:51:05.592Z,-9.25
2019-02-07T01:52:05.595Z,-9.25
2019-02-07T01:53:05.581Z,-9.26
2019-02-07T01:54:05.557Z,-9.25
2019-02-07T01:55:05.553Z,-9.18
2019-02-07T01:56:05.548Z,-9.25
2019-02-07T01:57:05.532Z,-9.15
2019-02-07T01:58:05.621Z,-9.25
2019-02-07T01:59:05.506Z,-9.08
2019-02-07T02:00:05.503Z,-9.22
2019-02-07T02:01:05.489Z,-9.20
2019-02-07T02:02:05.482Z,-9.15
2019-02-07T02:03:05.466Z,-9.15
2019-02-07T02:04:05.474Z,-9.25
2019-02-07T02:05:05.455Z,-9.25
2019-02-07T02:06:05.441Z,-9.20
2019-02-07T02:07:05.431Z,-9.18
2019-02-07T02:08:05.425Z,-9.14
2019-02-07T02:09:05.417Z,-9.23
2019-02-07T02:10:05.436Z,-9.20
2019-02-07T02:11:05.387Z,-9.28
2019-02-07T02:12:05.381Z,-9.20
2019-02-07T02:13:05.374Z,-9.22
2019-02-07T02:14:05.366Z,-9.25
2019-02-07T02:15:05.359Z,-9.28
2019-02-07T02:16:05.382Z,-9.41
2019-02-07T02:17:05.331Z,-9.36
2019-02-07T02:18:16.125Z,-9.29
2019-02-07T02:19:05.309Z,-9.33
2019-02-07T02:20:05.303Z,-9.30
2019-02-07T02:21:05.295Z,-9.28
2019-02-07T02:22:05.453Z,-9.25
2019-02-07T02:23:05.280Z,-9.33
2019-02-07T02:24:05.259Z,-9.30
2019-02-07T02:25:05.247Z,-9.40
2019-02-07T02:26:05.249Z,-9.33
2019-02-07T02:27:05.234Z,-9.36
2019-02-07T02:28:05.263Z,-9.37
2019-02-07T02:29:05.208Z,-9.29
2019-02-07T02:30:05.202Z,-9.26
2019-02-07T02:31:05.199Z,-9.30
2019-02-07T02:32:05.176Z,-9.33
2019-02-07T02:33:05.168Z,-9.32
2019-02-07T02:34:05.205Z,-9.32
2019-02-07T02:35:05.149Z,-9.28
2019-02-07T02:36:05.141Z,-9.36
2019-02-07T02:37:05.140Z,-9.32
2019-02-07T02:38:05.127Z,-9.36
2019-02-07T02:39:05.106Z,-9.30
2019-02-07T02:40:05.138Z,-9.37
2019-02-07T02:41:05.093Z,-9.28
2019-02-07T02:42:05.075Z,-9.30
2019-02-07T02:43:05.173Z,-9.40
2019-02-07T02:44:05.063Z,-9.45
2019-02-07T02:45:05.047Z,-9.28
2019-02-07T02:46:05.076Z,-9.44
2019-02-07T02:47:05.027Z,-9.36
2019-02-07T02:48:05.022Z,-9.39
2019-02-07T02:49:16.284Z,-9.33
2019-02-07T02:50:04.995Z,-9.32
2019-02-07T02:51:04.991Z,-9.44
2019-02-07T02:52:05.033Z,-9.40
2019-02-07T02:53:04.971Z,-9.40
2019-02-07T02:54:04.966Z,-9.33
2019-02-07T02:55:04.950Z,-9.30
2019-02-07T02:56:04.942Z,-9.44
2019-02-07T02:57:04.929Z,-9.47
2019-02-07T02:58:05.094Z,-9.47
2019-02-07T02:59:04.911Z,-9.48
2019-02-07T03:00:04.906Z,-9.41
2019-02-07T03:01:04.892Z,-9.33
2019-02-07T03:02:04.880Z,-9.36
2019-02-07T03:03:04.872Z,-9.32
2019-02-07T03:04:04.906Z,-9.32
2019-02-07T03:05:04.849Z,-9.30
2019-02-07T03:06:04.864Z,-9.51
2019-02-07T03:07:04.828Z,-9.33
2019-02-07T03:08:04.823Z,-9.30
2019-02-07T03:09:04.811Z,-9.25
2019-02-07T03:10:04.846Z,-9.44
2019-02-07T03:11:04.794Z,-9.33
2019-02-07T03:12:04.780Z,-9.40
2019-02-07T03:13:04.772Z,-9.37
2019-02-07T03:14:04.756Z,-9.36
2019-02-07T03:15:04.752Z,-9.23
2019-02-07T03:16:04.780Z,-9.29
2019-02-07T03:17:04.731Z,-9.29
2019-02-07T03:18:04.727Z,-9.33
2019-02-07T03:19:04.710Z,-9.32
2019-02-07T03:20:15.001Z,-9.30
2019-02-07T03:21:04.689Z,-9.26
2019-02-07T03:22:04.724Z,-9.26
2019-02-07T03:23:04.667Z,-9.22
2019-02-07T03:24:04.658Z,-9.28
2019-02-07T03:25:04.666Z,-9.28
2019-02-07T03:26:04.642Z,-9.26
2019-02-07T03:27:04.632Z,-9.28
2019-02-07T03:28:04.668Z,-9.23
2019-02-07T03:29:04.613Z,-9.25
2019-02-07T03:30:04.600Z,-9.30
2019-02-07T03:31:04.817Z,-9.36
2019-02-07T03:32:04.582Z,-9.20
2019-02-07T03:33:04.577Z,-9.23
2019-02-07T03:34:04.737Z,-9.20
2019-02-07T03:35:04.547Z,-9.23
2019-02-07T03:36:04.538Z,-9.26
2019-02-07T03:37:04.527Z,-9.23
2019-02-07T03:38:04.519Z,-9.19
2019-02-07T03:39:04.516Z,-9.20
2019-02-07T03:40:04.537Z,-9.23
2019-02-07T03:41:04.486Z,-9.20
2019-02-07T03:42:04.479Z,-9.19
2019-02-07T03:43:04.468Z,-9.28
2019-02-07T03:44:04.464Z,-9.18
2019-02-07T03:45:04.459Z,-9.23
2019-02-07T03:46:04.478Z,-9.19
2019-02-07T03:47:04.425Z,-9.23
2019-02-07T03:48:04.425Z,-9.14
2019-02-07T03:49:04.408Z,-9.18
2019-02-07T03:50:04.407Z,-9.22
2019-02-07T03:51:14.729Z,-9.12
2019-02-07T03:52:04.381Z,-9.20
2019-02-07T03:53:04.367Z,-9.10
2019-02-07T03:54:04.364Z,-9.07
2019-02-07T03:55:04.349Z,-9.05
2019-02-07T03:56:04.351Z,-9.05
2019-02-07T03:57:04.498Z,-9.05
2019-02-07T03:58:04.321Z,-8.98
2019-02-07T03:59:04.317Z,-8.98
2019-02-07T04:00:04.296Z,-9.00
2019-02-07T04:01:04.290Z,-8.98
2019-02-07T04:02:04.283Z,-9.01
2019-02-07T04:03:04.309Z,-9.04
2019-02-07T04:04:04.270Z,-8.98
2019-02-07T04:05:04.258Z,-9.10
2019-02-07T04:06:04.244Z,-9.05
2019-02-07T04:07:04.235Z,-9.05
2019-02-07T04:08:04.226Z,-9.05
2019-02-07T04:09:04.277Z,-9.04
2019-02-07T04:10:04.205Z,-9.11
2019-02-07T04:11:04.190Z,-9.14
2019-02-07T04:12:04.179Z,-9.07
2019-02-07T04:13:04.176Z,-9.07
2019-02-07T04:14:04.193Z,-9.07
2019-02-07T04:15:04.240Z,-9.19
2019-02-07T04:16:14.760Z,-9.19
2019-02-07T04:17:05.130Z,-9.12
2019-02-07T04:18:04.122Z,-9.07
2019-02-07T04:19:04.107Z,-9.07
2019-02-07T04:20:04.102Z,-9.11
2019-02-07T04:21:04.124Z,-9.07
2019-02-07T04:22:14.183Z,-9.08
2019-02-07T04:23:04.076Z,-9.05
2019-02-07T04:24:04.063Z,-9.02
2019-02-07T04:25:04.050Z,-9.04
2019-02-07T04:26:04.043Z,-9.02
2019-02-07T04:27:04.077Z,-9.12
2019-02-07T04:28:04.021Z,-9.01
2019-02-07T04:29:04.046Z,-9.02
2019-02-07T04:30:04.003Z,-8.98
2019-02-07T04:31:04.003Z,-9.04
2019-02-07T04:32:04.002Z,-9.04
2019-02-07T04:33:04.147Z,-8.94
2019-02-07T04:34:03.956Z,-8.98
2019-02-07T04:35:03.974Z,-8.93
2019-02-07T04:36:03.970Z,-8.89
2019-02-07T04:37:03.932Z,-8.91
2019-02-07T04:38:03.967Z,-8.86
2019-02-07T04:39:04.046Z,-8.86
2019-02-07T04:40:03.897Z,-8.81
2019-02-07T04:41:03.888Z,-8.87
2019-02-07T04:42:03.875Z,-8.86
2019-02-07T04:43:03.910Z,-8.91
2019-02-07T04:44:03.858Z,-8.87
2019-02-07T04:45:03.889Z,-8.90
2019-02-07T04:46:03.841Z,-8.84
2019-02-07T04:47:03.846Z,-8.87
2019-02-07T04:48:03.822Z,-8.81
2019-02-07T04:49:03.816Z,-8.81
2019-02-07T04:50:03.810Z,-8.78
2019-02-07T04:51:04.045Z,-8.91
2019-02-07T04:52:03.787Z,-8.84
2019-02-07T04:53:14.181Z,-8.84
2019-02-07T04:54:03.759Z,-8.70
2019-02-07T04:55:03.750Z,-8.73
2019-02-07T04:56:03.737Z,-8.73
2019-02-07T04:57:03.768Z,-8.70
2019-02-07T04:58:03.724Z,-8.73
2019-02-07T04:59:03.716Z,-8.66
2019-02-07T05:00:03.702Z,-8.68
2019-02-07T05:01:03.703Z,-8.57
2019-02-07T05:02:03.679Z,-8.57
2019-02-07T05:03:03.710Z,-8.65
2019-02-07T05:04:03.656Z,-8.57
2019-02-07T05:05:03.651Z,-8.62
2019-02-07T05:06:03.646Z,-8.62
2019-02-07T05:07:03.632Z,-8.60
2019-02-07T05:08:03.614Z,-8.55
2019-02-07T05:09:03.643Z,-8.55
2019-02-07T05:10:03.597Z,-8.55
2019-02-07T05:11:03.594Z,-8.60
2019-02-07T05:12:03.581Z,-8.66
2019-02-07T05:13:03.564Z,-8.58
2019-02-07T05:14:03.557Z,-8.62
2019-02-07T05:15:03.580Z,-8.57
2019-02-07T05:16:03.558Z,-8.66
2019-02-07T05:17:03.525Z,-8.51
2019-02-07T05:18:03.522Z,-8.54
2019-02-07T05:19:03.506Z,-8.54
2019-02-07T05:20:03.496Z,-8.57
2019-02-07T05:21:03.528Z,-8.51
2019-02-07T05:22:03.478Z,-8.50
2019-02-07T05:23:03.468Z,-8.47
2019-02-07T05:24:13.371Z,-8.50
2019-02-07T05:25:03.442Z,-8.39
2019-02-07T05:26:03.437Z,-8.45
2019-02-07T05:27:03.465Z,-8.47
2019-02-07T05:28:03.421Z,-8.47
2019-02-07T05:29:03.410Z,-8.39
2019-02-07T05:30:03.404Z,-8.40
2019-02-07T05:31:03.385Z,-8.40
2019-02-07T05:32:03.372Z,-8.37
2019-02-07T05:33:03.502Z,-8.39
2019-02-07T05:34:03.364Z,-8.29
2019-02-07T05:35:03.342Z,-8.27
2019-02-07T05:36:03.331Z,-8.24
2019-02-07T05:37:03.329Z,-8.40
2019-02-07T05:38:03.323Z,-8.30
2019-02-07T05:39:03.347Z,-8.23
2019-02-07T05:40:03.297Z,-8.36
2019-02-07T05:41:03.287Z,-8.33
2019-02-07T05:42:03.279Z,-8.29
2019-02-07T05:43:03.261Z,-8.30
2019-02-07T05:44:03.253Z,-8.26
2019-02-07T05:45:03.284Z,-8.24
2019-02-07T05:46:03.233Z,-8.23
2019-02-07T05:47:03.231Z,-8.19
2019-02-07T05:48:03.214Z,-8.13
2019-02-07T05:49:03.211Z,-8.30
2019-02-07T05:50:03.317Z,-8.18
2019-02-07T05:51:03.226Z,-8.16
2019-02-07T05:52:03.224Z,-8.12
2019-02-07T05:53:03.163Z,-8.29
2019-02-07T05:54:03.166Z,-8.11
2019-02-07T05:55:13.147Z,-8.16
2019-02-07T05:56:03.172Z,-8.16
2019-02-07T05:57:03.169Z,-8.11
2019-02-07T05:58:03.120Z,-8.09
2019-02-07T05:59:03.227Z,-8.08
2019-02-07T06:00:03.099Z,-8.01
2019-02-07T06:01:03.086Z,-8.05
2019-02-07T06:02:03.072Z,-8.05
2019-02-07T06:03:03.109Z,-8.06
2019-02-07T06:04:03.055Z,-7.93
2019-02-07T06:05:03.055Z,-7.94
2019-02-07T06:06:03.056Z,-7.93
2019-02-07T06:07:03.866Z,-7.96
2019-02-07T06:08:03.012Z,-7.91
2019-02-07T06:09:03.538Z,-7.82
2019-02-07T06:10:03.099Z,-7.80
2019-02-07T06:11:02.985Z,-7.91
2019-02-07T06:12:03.053Z,-7.83
2019-02-07T06:13:03.432Z,-7.86
2019-02-07T06:14:02.998Z,-7.83
2019-02-07T06:15:03.003Z,-7.80
2019-02-07T06:16:02.936Z,-7.89
2019-02-07T06:17:03.170Z,-7.86
2019-02-07T06:18:02.933Z,-7.87
2019-02-07T06:19:02.936Z,-7.83
2019-02-07T06:20:02.897Z,-7.82
2019-02-07T06:21:02.929Z,-7.83
2019-02-07T06:22:02.874Z,-7.79
2019-02-07T06:23:02.863Z,-7.83
2019-02-07T06:24:02.868Z,-7.79
2019-02-07T06:25:02.840Z,-7.90
2019-02-07T06:26:13.793Z,-7.86
2019-02-07T06:27:02.832Z,-7.90
2019-02-07T06:28:02.817Z,-7.80
2019-02-07T06:29:02.802Z,-7.76
2019-02-07T06:30:02.791Z,-7.76
2019-02-07T06:31:02.779Z,-7.80
2019-02-07T06:32:02.811Z,-7.79
2019-02-07T06:33:02.763Z,-7.71
2019-02-07T06:34:02.748Z,-7.71
2019-02-07T06:35:02.744Z,-7.75
2019-02-07T06:36:02.735Z,-7.79
2019-02-07T06:37:02.725Z,-7.83
2019-02-07T06:38:02.751Z,-7.82
2019-02-07T06:39:02.703Z,-7.91
2019-02-07T06:40:02.697Z,-7.96
2019-02-07T06:41:02.685Z,-7.99
2019-02-07T06:42:02.674Z,-7.83
2019-02-07T06:43:02.657Z,-7.90
2019-02-07T06:44:02.664Z,-7.76
2019-02-07T06:45:02.645Z,-7.78
2019-02-07T06:46:02.640Z,-7.73
2019-02-07T06:47:13.025Z,-7.75
2019-02-07T06:48:03.631Z,-7.61
2019-02-07T06:49:02.602Z,-7.71
2019-02-07T06:50:02.623Z,-7.61
2019-02-07T06:51:02.578Z,-7.60
2019-02-07T06:52:02.774Z,-7.55
2019-02-07T06:53:02.556Z,-7.55
2019-02-07T06:54:03.334Z,-7.54
2019-02-07T06:55:02.541Z,-7.50
2019-02-07T06:56:02.565Z,-7.64
2019-02-07T06:57:13.695Z,-7.50
2019-02-07T06:58:02.515Z,-7.55
2019-02-07T06:59:02.511Z,-7.54
2019-02-07T07:00:02.486Z,-7.52
2019-02-07T07:01:02.474Z,-7.51
2019-02-07T07:02:02.510Z,-7.39
2019-02-07T07:03:02.464Z,-7.37
2019-02-07T07:04:02.455Z,-7.44
2019-02-07T07:05:02.440Z,-7.34
2019-02-07T07:06:02.444Z,-7.44
2019-02-07T07:07:02.427Z,-7.40
2019-02-07T07:08:02.441Z,-7.37
2019-02-07T07:09:02.410Z,-7.31
2019-02-07T07:10:02.385Z,-7.23
2019-02-07T07:11:02.376Z,-7.33
2019-02-07T07:12:03.248Z,-7.18
2019-02-07T07:13:02.360Z,-7.25
2019-02-07T07:14:02.366Z,-7.22
2019-02-07T07:15:02.331Z,-7.23
2019-02-07T07:16:02.332Z,-7.16
2019-02-07T07:17:02.326Z,-7.13
2019-02-07T07:18:02.306Z,-7.11
2019-02-07T07:19:02.289Z,-7.15
2019-02-07T07:20:02.323Z,-7.11
2019-02-07T07:21:02.270Z,-7.07
2019-02-07T07:22:02.265Z,-7.01
2019-02-07T07:23:02.249Z,-7.00
2019-02-07T07:24:02.247Z,-7.02
2019-02-07T07:25:02.240Z,-7.08
2019-02-07T07:26:02.264Z,-7.08
2019-02-07T07:27:02.217Z,-7.07
2019-02-07T07:28:13.017Z,-7.08
2019-02-07T07:29:02.197Z,-7.13
2019-02-07T07:30:02.189Z,-7.13
2019-02-07T07:31:02.174Z,-7.18
2019-02-07T07:32:02.201Z,-7.18
2019-02-07T07:33:02.156Z,-7.04
2019-02-07T07:34:02.142Z,-7.00
2019-02-07T07:35:02.133Z,-7.11
2019-02-07T07:36:02.123Z,-7.19
2019-02-07T07:37:02.121Z,-7.02
2019-02-07T07:38:02.137Z,-7.13
2019-02-07T07:39:02.095Z,-7.18
2019-02-07T07:40:02.103Z,-7.19
2019-02-07T07:41:02.106Z,-7.12
2019-02-07T07:42:02.053Z,-7.12
2019-02-07T07:43:02.053Z,-7.15
2019-02-07T07:44:02.102Z,-7.12
2019-02-07T07:45:02.076Z,-7.04
2019-02-07T07:46:02.017Z,-7.11
2019-02-07T07:47:02.003Z,-7.08
2019-02-07T07:48:02.002Z,-7.01
2019-02-07T07:49:01.981Z,-7.13
2019-02-07T07:50:02.022Z,-7.08
2019-02-07T07:51:01.961Z,-7.05
2019-02-07T07:52:01.954Z,-6.98
2019-02-07T07:53:01.943Z,-7.01
2019-02-07T07:54:01.961Z,-7.00
2019-02-07T07:55:01.994Z,-6.95
2019-02-07T07:56:02.086Z,-7.04
2019-02-07T07:57:02.020Z,-6.89
2019-02-07T07:58:02.007Z,-6.87
2019-02-07T07:59:12.358Z,-6.83
2019-02-07T08:00:01.956Z,-6.82
2019-02-07T08:01:01.862Z,-6.71
2019-02-07T08:02:01.893Z,-6.80
2019-02-07T08:03:01.840Z,-6.68
2019-02-07T08:04:01.831Z,-6.62
2019-02-07T08:05:01.828Z,-6.65
2019-02-07T08:06:01.808Z,-6.62
2019-02-07T08:07:01.797Z,-6.59
2019-02-07T08:08:01.970Z,-6.47
2019-02-07T08:09:01.782Z,-6.47
2019-02-07T08:10:01.767Z,-6.40
2019-02-07T08:11:01.762Z,-6.47
2019-02-07T08:12:01.746Z,-6.26
2019-02-07T08:13:01.738Z,-6.31
2019-02-07T08:14:01.763Z,-6.21
2019-02-07T08:15:01.714Z,-6.22
2019-02-07T08:16:01.708Z,-6.18
2019-02-07T08:17:01.722Z,-6.08
2019-02-07T08:18:01.743Z,-6.07
2019-02-07T08:19:01.715Z,-6.07
2019-02-07T08:20:01.741Z,-6.03
2019-02-07T08:21:01.654Z,-6.04
2019-02-07T08:22:01.654Z,-6.01
2019-02-07T08:23:01.633Z,-5.97
2019-02-07T08:24:01.633Z,-6.05
2019-02-07T08:25:01.613Z,-5.86
2019-02-07T08:26:01.799Z,-6.01
2019-02-07T08:27:01.595Z,-5.94
2019-02-07T08:28:01.585Z,-5.87
2019-02-07T08:29:01.570Z,-5.97
2019-02-07T08:30:11.689Z,-5.94
2019-02-07T08:31:01.553Z,-5.89
2019-02-07T08:32:01.714Z,-5.93
2019-02-07T08:33:01.528Z,-5.89
2019-02-07T08:34:01.523Z,-5.89
2019-02-07T08:35:01.549Z,-5.93
2019-02-07T08:36:01.498Z,-5.92
2019-02-07T08:37:01.485Z,-5.83
2019-02-07T08:38:01.531Z,-5.94
2019-02-07T08:39:01.478Z,-5.87
2019-02-07T08:40:01.514Z,-5.93
2019-02-07T08:41:01.448Z,-5.90
2019-02-07T08:42:01.439Z,-5.89
2019-02-07T08:43:01.504Z,-5.93
2019-02-07T08:44:01.448Z,-5.86
2019-02-07T08:45:01.433Z,-5.94
2019-02-07T08:46:01.659Z,-5.90
2019-02-07T08:47:01.400Z,-5.89
2019-02-07T08:48:03.841Z,-5.93
2019-02-07T08:49:01.642Z,-5.86
2019-02-07T08:50:01.528Z,-5.92
2019-02-07T08:51:01.359Z,-5.80
2019-02-07T08:52:01.407Z,-5.89
2019-02-07T08:53:01.333Z,-5.80
2019-02-07T08:54:01.312Z,-5.71
2019-02-07T08:55:01.300Z,-5.66
2019-02-07T08:56:01.316Z,-5.62
2019-02-07T08:57:01.290Z,-5.62
2019-02-07T08:58:01.272Z,-5.50
2019-02-07T08:59:01.362Z,-5.55
2019-02-07T09:00:01.267Z,-5.51
2019-02-07T09:01:11.866Z,-5.53
2019-02-07T09:02:01.238Z,-5.50
2019-02-07T09:03:01.283Z,-5.41
2019-02-07T09:04:01.235Z,-5.47
2019-02-07T09:05:01.217Z,-5.54
2019-02-07T09:06:01.197Z,-5.46
2019-02-07T09:07:01.222Z,-5.47
2019-02-07T09:08:01.177Z,-5.44
2019-02-07T09:09:01.199Z,-5.41
2019-02-07T09:10:01.176Z,-5.48
2019-02-07T09:11:01.156Z,-5.47
2019-02-07T09:12:01.130Z,-5.53
2019-02-07T09:13:01.163Z,-5.47
2019-02-07T09:14:01.107Z,-5.48
2019-02-07T09:15:01.102Z,-5.46
2019-02-07T09:16:01.095Z,-5.37
2019-02-07T09:17:01.078Z,-5.39
2019-02-07T09:18:09.801Z,-5.41
2019-02-07T09:19:02.952Z,-5.41
2019-02-07T09:20:01.047Z,-5.35
2019-02-07T09:21:03.202Z,-5.29
2019-02-07T09:22:01.025Z,-5.36
2019-02-07T09:23:01.034Z,-5.41
2019-02-07T09:24:01.018Z,-5.51
2019-02-07T09:25:01.047Z,-5.36
2019-02-07T09:26:01.006Z,-5.41
2019-02-07T09:27:00.976Z,-5.41
2019-02-07T09:28:00.969Z,-5.39
2019-02-07T09:29:00.952Z,-5.27
2019-02-07T09:30:00.946Z,-5.30
2019-02-07T09:31:01.018Z,-5.26
2019-02-07T09:32:11.447Z,-5.27
2019-02-07T09:33:00.909Z,-5.13
2019-02-07T09:34:00.895Z,-5.26
2019-02-07T09:35:00.895Z,-5.32
2019-02-07T09:36:05.387Z,-5.17
2019-02-07T09:37:00.914Z,-5.14
2019-02-07T09:38:00.856Z,-5.22
2019-02-07T09:39:00.847Z,-5.18
2019-02-07T09:40:00.834Z,-5.22
2019-02-07T09:41:00.827Z,-5.18
2019-02-07T09:42:00.819Z,-5.08
2019-02-07T09:43:00.847Z,-5.14
2019-02-07T09:44:00.793Z,-5.17
2019-02-07T09:45:00.787Z,-5.10
2019-02-07T09:46:00.778Z,-5.11
2019-02-07T09:47:00.763Z,-5.10
2019-02-07T09:48:00.758Z,-5.17
2019-02-07T09:49:00.779Z,-5.10
2019-02-07T09:50:00.733Z,-5.10
2019-02-07T09:51:00.736Z,-5.13
2019-02-07T09:52:00.718Z,-5.11
2019-02-07T09:53:00.705Z,-5.11
2019-02-07T09:54:00.721Z,-5.03
2019-02-07T09:55:00.721Z,-5.00
2019-02-07T09:56:00.680Z,-5.00
2019-02-07T09:57:00.664Z,-4.99
2019-02-07T09:58:00.656Z,-4.89
2019-02-07T09:59:03.202Z,-4.93
2019-02-07T10:00:00.635Z,-4.92
2019-02-07T10:01:00.788Z,-4.83
2019-02-07T10:02:00.612Z,-4.89
2019-02-07T10:03:11.512Z,-4.86
2019-02-07T10:04:00.699Z,-4.89
2019-02-07T10:05:00.576Z,-4.87
2019-02-07T10:06:00.591Z,-4.93
2019-02-07T10:07:00.593Z,-4.86
2019-02-07T10:08:00.543Z,-4.92
2019-02-07T10:09:00.538Z,-4.87
2019-02-07T10:10:00.540Z,-4.87
2019-02-07T10:11:00.509Z,-4.83
2019-02-07T10:12:00.508Z,-4.93
2019-02-07T10:13:00.534Z,-4.87
2019-02-07T10:14:00.498Z,-4.87
2019-02-07T10:15:00.494Z,-4.79
2019-02-07T10:16:00.508Z,-4.83
2019-02-07T10:17:00.463Z,-4.72
2019-02-07T10:18:00.459Z,-4.69
2019-02-07T10:19:00.470Z,-4.74
2019-02-07T10:20:00.431Z,-4.75
2019-02-07T10:21:00.422Z,-4.71
2019-02-07T10:22:00.401Z,-4.60
2019-02-07T10:23:00.390Z,-4.71
2019-02-07T10:24:00.383Z,-4.56
2019-02-07T10:25:00.413Z,-4.72
2019-02-07T10:26:00.363Z,-4.60
2019-02-07T10:27:00.347Z,-4.60
2019-02-07T10:28:00.340Z,-4.56
2019-02-07T10:29:00.328Z,-4.56
2019-02-07T10:30:00.433Z,-4.56
2019-02-07T10:31:00.347Z,-4.50
2019-02-07T10:32:00.304Z,-4.53
2019-02-07T10:33:00.295Z,-4.56
2019-02-07T10:34:10.461Z,-4.51
2019-02-07T10:35:00.364Z,-4.56
2019-02-07T10:36:00.253Z,-4.53
2019-02-07T10:37:00.284Z,-4.40
2019-02-07T10:38:00.237Z,-4.42
2019-02-07T10:39:00.227Z,-4.35
2019-02-07T10:40:00.353Z,-4.36
2019-02-07T10:41:00.205Z,-4.35
2019-02-07T10:42:00.197Z,-4.35
2019-02-07T10:43:00.234Z,-4.38
2019-02-07T10:44:00.174Z,-4.29
2019-02-07T10:45:00.222Z,-4.35
2019-02-07T10:46:00.153Z,-4.29
2019-02-07T10:47:00.958Z,-4.29
2019-02-07T10:48:00.195Z,-4.30
2019-02-07T10:49:00.291Z,-4.30
2019-02-07T10:50:00.216Z,-4.29
2019-02-07T10:51:00.156Z,-4.42
2019-02-07T10:52:00.090Z,-4.38
2019-02-07T10:53:00.103Z,-4.35
2019-02-07T10:54:00.070Z,-4.39
2019-02-07T10:55:00.189Z,-4.29
2019-02-07T10:56:00.175Z,-4.39
2019-02-07T10:57:00.041Z,-4.43
2019-02-07T10:58:00.029Z,-4.42
2019-02-07T10:59:00.015Z,-4.38
2019-02-07T11:00:00.012Z,-4.42
2019-02-07T11:01:00.231Z,-4.40
2019-02-07T11:01:59.987Z,-4.35
2019-02-07T11:02:59.981Z,-4.46
2019-02-07T11:03:59.967Z,-4.32
2019-02-07T11:05:10.154Z,-4.32
2019-02-07T11:05:59.948Z,-4.30
2019-02-07T11:06:59.974Z,-4.33
2019-02-07T11:07:59.967Z,-4.28
2019-02-07T11:08:59.912Z,-4.22
2019-02-07T11:09:59.908Z,-4.30
2019-02-07T11:11:02.645Z,-4.29
2019-02-07T11:11:59.884Z,-4.30
2019-02-07T11:13:00.048Z,-4.29
2019-02-07T11:13:59.864Z,-4.24
2019-02-07T11:14:59.848Z,-4.17
2019-02-07T11:15:59.846Z,-4.11
2019-02-07T11:16:59.829Z,-4.12
2019-02-07T11:17:59.828Z,-3.97
2019-02-07T11:18:59.880Z,-4.01
2019-02-07T11:19:59.801Z,-3.97
2019-02-07T11:20:59.786Z,-4.00
2019-02-07T11:21:59.776Z,-4.01
2019-02-07T11:22:59.770Z,-4.00
2019-02-07T11:23:59.760Z,-4.06
2019-02-07T11:24:59.806Z,-4.07
2019-02-07T11:25:59.734Z,-4.04
2019-02-07T11:26:59.726Z,-3.99
2019-02-07T11:28:09.860Z,-4.01
2019-02-07T11:29:00.743Z,-3.97
2019-02-07T11:29:59.692Z,-4.03
2019-02-07T11:30:59.746Z,-4.01
2019-02-07T11:31:59.696Z,-4.01
2019-02-07T11:32:59.666Z,-4.01
2019-02-07T11:33:59.662Z,-3.94
2019-02-07T11:34:59.646Z,-3.93
2019-02-07T11:36:09.959Z,-3.94
2019-02-07T11:36:59.623Z,-3.93
2019-02-07T11:37:59.616Z,-3.83
2019-02-07T11:38:59.626Z,-3.78
2019-02-07T11:39:59.590Z,-3.90
2019-02-07T11:40:59.585Z,-3.86
2019-02-07T11:41:59.732Z,-3.78
2019-02-07T11:42:59.564Z,-3.83
2019-02-07T11:43:59.563Z,-3.83
2019-02-07T11:44:59.553Z,-3.72
2019-02-07T11:45:59.528Z,-3.78
2019-02-07T11:47:05.595Z,-3.81
2019-02-07T11:48:00.550Z,-3.76
2019-02-07T11:49:06.593Z,-3.75
2019-02-07T11:50:00.539Z,-3.69
2019-02-07T11:50:59.482Z,-3.72
2019-02-07T11:51:59.470Z,-3.62
2019-02-07T11:52:59.461Z,-3.60
2019-02-07T11:53:59.487Z,-3.62
2019-02-07T11:54:59.434Z,-3.54
2019-02-07T11:55:59.437Z,-3.62
2019-02-07T11:56:59.418Z,-3.52
2019-02-07T11:57:59.407Z,-3.56
2019-02-07T11:58:59.391Z,-3.49
2019-02-07T11:59:59.421Z,-3.52
2019-02-07T12:00:59.385Z,-3.46
2019-02-07T12:02:08.798Z,-3.53
2019-02-07T12:03:00.354Z,-3.39
2019-02-07T12:03:59.340Z,-3.38
2019-02-07T12:04:59.334Z,-3.23
2019-02-07T12:05:59.360Z,-3.24
2019-02-07T12:07:09.242Z,-3.25
2019-02-07T12:07:59.303Z,-3.10
2019-02-07T12:08:59.289Z,-3.14
2019-02-07T12:09:59.279Z,-3.21
2019-02-07T12:10:59.270Z,-3.24
2019-02-07T12:11:59.486Z,-3.09
2019-02-07T12:12:59.250Z,-3.05
2019-02-07T12:13:59.239Z,-3.06
2019-02-07T12:14:59.226Z,-2.96
2019-02-07T12:15:59.219Z,-2.89
2019-02-07T12:16:59.216Z,-3.02
2019-02-07T12:17:59.387Z,-3.00
2019-02-07T12:18:59.184Z,-3.00
2019-02-07T12:19:59.180Z,-2.99
2019-02-07T12:20:59.166Z,-3.10
2019-02-07T12:21:59.155Z,-3.06
2019-02-07T12:22:59.231Z,-3.06
2019-02-07T12:23:59.290Z,-3.10
2019-02-07T12:24:59.156Z,-3.12
2019-02-07T12:25:59.108Z,-3.09
2019-02-07T12:26:59.109Z,-3.05
2019-02-07T12:27:59.101Z,-3.14
2019-02-07T12:28:59.091Z,-3.18
2019-02-07T12:29:59.113Z,-3.18
2019-02-07T12:30:59.065Z,-3.12
2019-02-07T12:31:59.054Z,-3.05
2019-02-07T12:32:59.037Z,-3.06
2019-02-07T12:33:59.032Z,-3.05
2019-02-07T12:34:59.015Z,-3.05
2019-02-07T12:35:59.040Z,-3.09
2019-02-07T12:36:58.998Z,-3.10
2019-02-07T12:38:11.106Z,-3.06
2019-02-07T12:38:58.974Z,-3.00
2019-02-07T12:39:58.967Z,-3.10
2019-02-07T12:40:58.954Z,-3.10
2019-02-07T12:41:59.899Z,-2.97
2019-02-07T12:42:58.943Z,-2.97
2019-02-07T12:43:58.929Z,-3.02
2019-02-07T12:44:58.909Z,-2.96
2019-02-07T12:45:58.906Z,-2.99
2019-02-07T12:46:58.900Z,-2.99
2019-02-07T12:47:58.914Z,-2.96
2019-02-07T12:48:58.871Z,-2.91
2019-02-07T12:49:58.857Z,-2.91
2019-02-07T12:50:58.854Z,-2.97
2019-02-07T12:51:58.887Z,-2.88